Time;durP1;ratioP1;P1;durP2;ratioP2;P2;SDS_P1;SDS_P2;PMS_P1;PMS_P2;Temp;Humidity;BMP_temperature;BMP_pressure;BME280_temperature;BME280_humidity;BME280_pressure;Samples;Min_cycle;Max_cycle;Signal;HPM_P1;HPM_P2
2022/08/20 00:01:03;;;;;;;27.35;17.17;;;;;;;17.43;49.24;100951.34;5034935;28;20056;-78
2022/08/20 00:03:37;;;;;;;30.00;17.85;;;;;;;17.57;49.14;100983.78;5036256;28;20112;-79
2022/08/20 00:06:11;;;;;;;27.27;16.45;;;;;;;17.30;49.33;100950.56;5037025;28;20057;-80
2022/08/20 00:08:39;;;;;;;30.90;16.75;;;;;;;17.48;49.64;100990.03;5035400;28;20510;-79
2022/08/20 00:11:09;;;;;;;27.50;16.55;;;;;;;17.42;49.80;100974.22;5036977;28;20053;-79
2022/08/20 00:13:45;;;;;;;26.95;16.58;;;;;;;17.19;49.53;100969.13;5036743;28;20520;-79
2022/08/20 00:16:22;;;;;;;25.45;16.00;;;;;;;16.95;49.90;100925.25;5036582;28;20425;-78
2022/08/20 00:18:50;;;;;;;25.92;16.10;;;;;;;17.34;50.19;100976.06;5038368;28;20053;-80
2022/08/20 00:21:18;;;;;;;24.05;16.65;;;;;;;17.13;50.43;100951.53;5034607;28;20081;-80
2022/08/20 00:23:49;;;;;;;29.70;16.35;;;;;;;17.18;50.39;100977.91;5032746;28;20501;-81
2022/08/20 00:26:17;;;;;;;;;;;;;;;17.02;50.78;100992.09;5034353;28;20060;-80
2022/08/20 00:28:44;;;;;;;26.63;16.20;;;;;;;16.66;50.86;100913.06;5033903;28;20091;-78
2022/08/20 00:31:15;;;;;;;23.88;16.42;;;;;;;17.14;51.13;101013.13;5033987;28;20041;-79
2022/08/20 00:33:43;;;;;;;26.92;16.20;;;;;;;16.88;51.08;100947.28;5032920;28;20567;-79
2022/08/20 00:36:11;;;;;;;25.02;16.27;;;;;;;17.09;51.24;100999.09;5033040;28;20059;-79
2022/08/20 00:38:40;;;;;;;27.17;16.65;;;;;;;16.87;51.30;100969.28;5033756;28;20111;-79
2022/08/20 00:41:11;;;;;;;;;;;;;;;16.79;51.59;101000.94;5034611;28;20049;-80
2022/08/20 00:43:50;;;;;;;25.27;16.42;;;;;;;16.78;51.46;100989.53;5033523;28;19955;-79
2022/08/20 00:46:20;;;;;;;26.50;16.70;;;;;;;16.89;51.88;101002.69;5033599;28;20088;-79
2022/08/20 00:48:50;;;;;;;26.52;16.00;;;;;;;16.87;52.20;101003.59;5033575;28;20057;-79
2022/08/20 00:51:32;;;;;;;25.05;16.33;;;;;;;16.86;52.29;100999.19;5033325;28;20511;-79
2022/08/20 00:54:09;;;;;;;28.77;16.48;;;;;;;16.69;52.30;100975.47;5033619;28;20085;-78
2022/08/20 00:56:37;;;;;;;26.70;16.75;;;;;;;16.83;52.37;101004.50;5031974;28;20081;-79
2022/08/20 00:59:10;;;;;;;24.95;15.52;;;;;;;16.82;52.40;101000.09;5033335;28;20148;-78
2022/08/20 01:01:39;;;;;;;23.73;15.65;;;;;;;16.81;52.50;101004.50;5033114;28;20577;-79
2022/08/20 01:04:26;;;;;;;24.23;14.85;;;;;;;16.79;52.48;101011.50;5033223;28;20064;-79
2022/08/20 01:06:54;;;;;;;22.60;15.15;;;;;;;16.76;52.62;101019.44;5032034;28;20057;-79
2022/08/20 01:09:22;;;;;;;24.95;14.70;;;;;;;16.75;52.68;101023.81;5032972;28;20087;-78
2022/08/20 01:12:09;;;;;;;24.67;14.93;;;;;;;16.70;52.95;101014.19;5032370;28;20143;-78
2022/08/20 01:17:07;;;;;;;26.25;15.73;;;;;;;16.64;53.05;101009.78;5033053;28;20052;-77
2022/08/20 01:19:42;;;;;;;21.23;14.32;;;;;;;16.45;53.07;100966.75;5033075;28;20575;-79
2022/08/20 01:25:06;;;;;;;24.30;14.85;;;;;;;16.53;53.28;101011.59;5033395;28;20084;-78
2022/08/20 01:27:34;;;;;;;21.73;14.93;;;;;;;16.37;53.29;100985.25;5033790;28;20106;-80
2022/08/20 01:30:09;;;;;;;26.73;15.35;;;;;;;16.47;53.62;101001.94;5039603;28;20055;-80
2022/08/20 01:32:36;;;;;;;21.45;13.90;;;;;;;16.48;53.73;101014.25;5034211;28;20057;-79
2022/08/20 01:35:04;;;;;;;27.73;14.20;;;;;;;16.21;53.61;100965.09;5034135;28;20511;-79
2022/08/20 01:37:31;;;;;;;25.77;14.80;;;;;;;16.43;53.79;101020.41;5034244;28;20072;-79
2022/08/20 01:39:59;;;;;;;25.05;14.63;;;;;;;16.40;53.97;101030.97;5031404;28;20145;-79
2022/08/20 01:42:36;;;;;;;22.75;14.95;;;;;;;16.03;53.63;100965.13;5031454;28;20056;-77
2022/08/20 01:45:20;;;;;;;26.58;15.93;;;;;;;16.23;54.21;101018.69;5032555;28;20429;-78
2022/08/20 01:47:52;;;;;;;25.45;15.55;;;;;;;16.16;54.29;101030.13;5032892;28;20073;-78
2022/08/20 01:50:26;;;;;;;25.40;16.15;;;;;;;16.03;54.71;101008.16;5032788;28;20068;-77
2022/08/20 01:53:08;;;;;;;29.83;17.75;;;;;;;15.99;54.84;101014.31;5033070;28;20075;-78
2022/08/20 01:55:36;;;;;;;29.17;18.08;;;;;;;15.80;55.58;101008.16;5032158;28;20049;-77
2022/08/20 01:58:03;;;;;;;32.97;18.17;;;;;;;15.85;55.52;101023.97;5032412;28;20054;-79
2022/08/20 02:00:31;;;;;;;33.63;20.60;;;;;;;15.79;55.98;101018.69;5032339;28;20493;-78
2022/08/20 02:02:58;;;;;;;33.15;20.45;;;;;;;15.79;55.73;101005.53;5032593;28;20065;-78
2022/08/20 02:05:25;;;;;;;31.10;20.17;;;;;;;15.54;56.26;100968.63;5032361;28;20060;-79
2022/08/20 02:07:56;;;;;;;31.17;20.55;;;;;;;15.72;56.28;101009.91;5033343;28;20049;-78
2022/08/20 02:10:23;;;;;;;34.90;21.48;;;;;;;15.22;56.40;100934.38;5032503;28;20156;-77
2022/08/20 02:12:51;;;;;;;31.88;21.63;;;;;;;15.62;56.34;101009.00;5032645;28;20065;-79
2022/08/20 02:15:39;;;;;;;32.03;21.83;;;;;;;15.67;56.66;101009.00;5031722;28;20157;-79
2022/08/20 02:18:13;;;;;;;31.80;21.23;;;;;;;15.66;57.12;101021.31;5032830;28;20055;-79
2022/08/20 02:20:42;;;;;;;32.13;20.52;;;;;;;15.70;56.92;101030.06;5031440;28;20054;-78
2022/08/20 02:23:11;;;;;;;28.98;20.40;;;;;;;15.66;56.81;101018.69;5032403;28;20508;-77
2022/08/20 02:25:40;;;;;;;32.28;19.65;;;;;;;15.71;56.99;101019.59;5032371;28;20053;-77
2022/08/20 02:28:10;;;;;;;30.17;19.27;;;;;;;15.71;57.18;101018.69;5032032;28;20484;-78
2022/08/20 02:30:42;;;;;;;26.38;17.38;;;;;;;15.69;56.94;101016.03;5032593;28;20054;-78
2022/08/20 02:33:12;;;;;;;26.98;16.40;;;;;;;15.73;57.19;101030.13;5032553;28;20478;-78
2022/08/20 02:35:41;;;;;;;26.23;16.05;;;;;;;15.50;57.49;100978.28;5032135;28;20057;-77
2022/08/20 02:38:10;;;;;;;22.73;14.20;;;;;;;15.71;57.65;101024.84;5032795;28;20085;-79
2022/08/20 02:40:38;;;;;;;26.15;14.23;;;;;;;15.67;57.33;101028.31;5036110;28;20053;-79
2022/08/20 02:43:06;;;;;;;22.35;14.30;;;;;;;15.75;57.70;101029.25;5035966;28;20152;-78
2022/08/20 02:45:42;;;;;;;22.13;13.20;;;;;;;15.77;57.53;101026.63;5035784;28;20046;-78
2022/08/20 02:48:19;;;;;;;19.10;11.80;;;;;;;15.76;57.72;101025.72;5035975;28;20053;-78
2022/08/20 02:50:56;;;;;;;21.27;11.60;;;;;;;15.75;57.72;101038.91;5035690;28;20139;-78
2022/08/20 02:53:28;;;;;;;20.73;11.80;;;;;;;15.55;57.85;100986.16;5034363;28;20057;-79
2022/08/20 02:55:56;;;;;;;20.73;11.45;;;;;;;15.56;57.91;100980.91;5016183;28;20149;-78
2022/08/20 02:58:23;;;;;;;19.98;9.60;;;;;;;15.87;57.41;101030.13;5016015;28;20073;-79
2022/08/20 03:00:51;;;;;;;21.63;10.02;;;;;;;15.98;56.98;101017.81;5015526;28;20395;-78
2022/08/20 03:03:22;;;;;;;17.23;10.00;;;;;;;16.13;56.82;101033.66;5015899;28;20053;-77
2022/08/20 03:05:54;;;;;;;16.65;9.40;;;;;;;16.24;56.51;101043.28;5015699;28;20053;-76
2022/08/20 03:08:23;;;;;;;20.17;10.20;;;;;;;16.20;56.46;101010.78;5015763;28;20092;-77
2022/08/20 03:10:54;;;;;;;17.90;9.85;;;;;;;16.40;56.42;101034.47;5015567;28;20103;-78
2022/08/20 03:13:38;;;;;;;17.77;9.70;;;;;;;16.25;56.10;101008.16;5015449;28;20073;-78
2022/08/20 03:16:09;;;;;;;14.77;8.65;;;;;;;16.24;56.12;101009.91;5015568;28;20049;-78
2022/08/20 03:18:54;;;;;;;16.13;8.65;;;;;;;16.32;56.24;101033.59;5015992;28;20050;-78
2022/08/20 03:21:21;;;;;;;16.77;8.80;;;;;;;16.68;55.48;101047.59;5015848;28;20144;-78
2022/08/20 03:23:48;;;;;;;16.05;9.13;;;;;;;17.57;53.21;101044.56;5015376;28;20050;-78
2022/08/20 03:26:16;;;;;;;14.10;8.10;;;;;;;17.88;52.06;101047.03;5015281;28;20054;-80
2022/08/20 03:28:43;;;;;;;21.17;8.18;;;;;;;18.75;50.48;101048.81;5015013;28;20104;-80
2022/08/20 03:31:14;;;;;;;15.18;7.63;;;;;;;20.42;46.02;101034.00;5016007;28;20053;-78
2022/08/20 03:33:44;;;;;;;16.27;7.85;;;;;;;21.75;42.86;101043.63;5016665;28;20069;-77
2022/08/20 03:36:22;;;;;;;18.20;7.70;;;;;;;22.80;40.27;101046.22;5016543;28;20565;-79
2022/08/20 03:38:57;;;;;;;11.73;6.70;;;;;;;23.91;38.42;101041.94;5016409;28;20065;-79
2022/08/20 03:41:24;;;;;;;13.70;6.97;;;;;;;24.34;37.18;101026.25;5016898;28;20196;-80
2022/08/20 03:43:51;;;;;;;11.05;6.55;;;;;;;24.62;36.10;101044.00;5017393;28;20060;-80
2022/08/20 03:46:32;;;;;;;16.45;7.63;;;;;;;24.67;35.77;101040.25;5016314;28;20050;-79
2022/08/20 03:48:59;;;;;;;15.43;7.80;;;;;;;24.19;36.35;101057.03;5013907;28;20068;-77
2022/08/20 03:51:29;;;;;;;16.27;7.10;;;;;;;22.33;39.29;101037.75;5029703;28;20064;-78
2022/08/20 03:53:57;;;;;;;11.70;7.00;;;;;;;21.24;41.42;101023.50;5034490;28;20057;-78
2022/08/20 03:56:32;;;;;;;19.50;7.82;;;;;;;20.85;42.55;101054.44;5034379;28;20056;-78
2022/08/20 03:58:59;;;;;;;11.95;6.68;;;;;;;20.56;43.51;101055.84;5034624;28;20045;-77
2022/08/20 04:01:30;;;;;;;18.77;7.53;;;;;;;20.43;43.62;101057.88;5034503;28;20057;-80
2022/08/20 04:04:13;;;;;;;15.57;7.80;;;;;;;20.16;43.76;101015.91;5034645;28;20064;-77
2022/08/20 04:06:42;;;;;;;12.32;7.75;;;;;;;20.33;44.17;101052.75;5034363;28;20056;-79
2022/08/20 04:09:17;;;;;;;18.58;7.95;;;;;;;20.25;44.13;101040.50;5034395;28;20061;-79
2022/08/20 04:11:59;;;;;;;15.45;7.22;;;;;;;20.25;44.06;101035.19;5034342;28;20444;-78
2022/08/20 04:14:28;;;;;;;14.45;8.38;;;;;;;20.39;43.71;101045.56;5033809;28;20112;-77
2022/08/20 04:16:56;;;;;;;17.92;9.25;;;;;;;20.40;43.16;101049.09;5033974;28;20413;-77
2022/08/20 04:19:26;;;;;;;22.50;9.35;;;;;;;20.29;43.09;101043.97;5034255;28;20080;-77
2022/08/20 04:22:02;;;;;;;15.60;9.20;;;;;;;20.17;43.75;101049.47;5034571;28;20528;-78
2022/08/20 04:24:30;;;;;;;18.20;8.68;;;;;;;20.11;43.65;101044.28;5031923;28;20563;-79
2022/08/20 04:27:20;;;;;;;15.52;8.82;;;;;;;19.77;43.48;101003.31;5033939;28;20053;-78
2022/08/20 04:29:47;;;;;;;13.30;7.75;;;;;;;19.90;43.66;101037.59;5034195;28;20061;-80
2022/08/20 04:32:17;;;;;;;15.20;8.20;;;;;;;20.16;43.27;101045.97;5034053;28;20499;-78
2022/08/20 04:34:44;;;;;;;11.35;8.30;;;;;;;20.35;43.00;101061.53;5032612;28;20160;-78
2022/08/20 04:37:22;;;;;;;18.40;8.82;;;;;;;20.22;42.40;101013.16;5033840;28;20080;-79
2022/08/20 04:42:43;;;;;;;16.30;7.00;;;;;;;20.50;42.16;101034.75;5034183;28;20140;-78
2022/08/20 04:45:12;;;;;;;12.60;6.57;;;;;;;20.62;41.86;101055.75;5034004;28;20065;-79
2022/08/20 04:47:39;;;;;;;14.10;6.65;;;;;;;20.65;41.72;101055.72;5033871;28;20103;-78
2022/08/20 04:50:11;;;;;;;10.43;6.75;;;;;;;20.99;41.35;101059.44;5033720;28;20155;-78
2022/08/20 04:53:26;;;;;;;10.48;6.25;;;;;;;20.99;41.05;101048.84;5032159;28;20057;-77
2022/08/20 04:56:08;;;;;;;12.60;5.50;;;;;;;21.20;40.33;101020.94;5033714;28;20049;-81
2022/08/20 04:58:38;;;;;;;12.18;5.45;;;;;;;21.07;40.47;101029.16;5033678;28;20089;-78
2022/08/20 05:01:13;;;;;;;10.02;5.57;;;;;;;21.20;40.07;101043.06;5030818;28;20053;-79
2022/08/20 05:03:42;;;;;;;10.57;5.38;;;;;;;21.09;39.86;101015.00;5031833;28;20049;-81
2022/08/20 05:06:37;;;;;;;14.25;5.53;;;;;;;20.89;40.11;101005.69;5033296;28;20060;-79
2022/08/20 05:09:04;;;;;;;11.25;5.07;;;;;;;20.82;40.39;101057.13;5033533;28;20136;-79
2022/08/20 05:11:31;;;;;;;9.82;5.32;;;;;;;20.91;40.16;101070.25;5033186;28;20496;-78
2022/08/20 05:14:07;;;;;;;13.02;5.07;;;;;;;20.80;40.27;101061.59;5033412;28;20053;-79
2022/08/20 05:16:37;;;;;;;12.05;4.85;;;;;;;20.63;40.04;101041.59;5032092;28;20037;-79
2022/08/20 05:19:08;;;;;;;7.60;4.90;;;;;;;20.62;40.33;101060.19;5033893;28;20103;-79
2022/08/20 05:21:41;;;;;;;11.25;4.50;;;;;;;20.46;40.66;101062.25;5033544;28;20145;-78
2022/08/20 05:24:10;;;;;;;7.97;4.75;;;;;;;20.11;41.17;101028.38;5030893;28;20077;-78
2022/08/20 05:26:37;;;;;;;10.88;5.28;;;;;;;20.01;41.53;101031.19;5033399;28;20103;-79
2022/08/20 05:29:05;;;;;;;11.45;4.55;;;;;;;20.08;41.42;101052.31;5044442;28;20065;-77
2022/08/20 05:31:34;;;;;;;9.80;5.80;;;;;;;20.11;40.98;101061.09;5047257;28;20053;-80
2022/08/20 05:34:09;;;;;;;10.88;4.78;;;;;;;20.10;41.02;101080.53;5040905;28;20123;-80
2022/08/20 05:36:46;;;;;;;8.48;4.70;;;;;;;19.98;41.30;101080.75;5033357;28;20045;-80
2022/08/20 05:39:17;;;;;;;8.93;4.80;;;;;;;19.87;41.18;101074.75;5033012;28;20468;-77
2022/08/20 05:41:44;;;;;;;11.30;5.47;;;;;;;19.71;41.52;101066.16;5031912;28;20528;-79
2022/08/20 05:44:12;;;;;;;11.93;4.90;;;;;;;19.80;41.53;101069.53;5033310;28;20049;-82
2022/08/20 05:46:45;;;;;;;8.03;4.77;;;;;;;19.79;41.38;101065.16;5033082;28;20053;-79
2022/08/20 05:49:18;;;;;;;10.00;4.68;;;;;;;19.84;41.20;101076.53;5032086;28;20099;-78
2022/08/20 05:51:47;;;;;;;10.55;4.93;;;;;;;19.75;41.09;101071.38;5032589;28;20045;-79
2022/08/20 05:54:14;;;;;;;9.77;5.15;;;;;;;19.84;41.33;101097.75;5032340;28;20111;-77
2022/08/20 05:56:42;;;;;;;8.10;5.10;;;;;;;19.91;40.95;101079.09;5032275;28;20049;-78
2022/08/20 05:59:09;;;;;;;10.55;4.80;;;;;;;19.97;41.05;101079.00;5032788;28;20552;-79
2022/08/20 06:01:38;;;;;;;12.88;5.03;;;;;;;19.91;40.73;101065.84;5032742;28;20067;-79
2022/08/20 06:04:30;;;;;;;8.52;4.60;;;;;;;19.89;41.11;101064.97;5016329;28;20417;-79
2022/08/20 06:07:04;;;;;;;9.02;4.47;;;;;;;19.96;40.89;101071.94;5032282;28;20107;-79
2022/08/20 06:09:33;;;;;;;10.65;4.82;;;;;;;19.92;41.02;101073.78;5032504;28;20111;-77
2022/08/20 06:12:04;;;;;;;8.93;4.45;;;;;;;19.71;41.00;101032.56;5031261;28;20100;-78
2022/08/20 06:14:32;;;;;;;8.35;4.50;;;;;;;19.90;40.60;101029.63;5033593;28;20064;-77
2022/08/20 06:17:12;;;;;;;9.65;4.53;;;;;;;20.01;40.72;101063.00;5035356;28;20536;-78
2022/08/20 06:19:46;;;;;;;8.27;4.90;;;;;;;19.70;40.67;101009.59;5036999;28;20045;-80
2022/08/20 06:22:14;;;;;;;9.52;4.53;;;;;;;20.13;40.32;101061.03;5038689;28;20049;-78
2022/08/20 06:24:53;;;;;;;11.18;4.78;;;;;;;20.14;40.12;101061.03;5041332;28;20049;-79
2022/08/20 06:27:21;;;;;;;11.35;5.20;;;;;;;20.05;40.29;101029.38;5041641;28;20061;-79
2022/08/20 06:29:49;;;;;;;9.88;4.90;;;;;;;20.15;40.09;101033.59;5039017;28;20107;-80
2022/08/20 06:32:18;;;;;;;9.30;4.97;;;;;;;20.07;40.09;101018.72;5034896;28;20484;-79
2022/08/20 06:34:54;;;;;;;10.40;5.00;;;;;;;20.03;39.60;101039.13;5037254;28;20144;-80
2022/08/20 06:37:25;;;;;;;14.02;5.40;;;;;;;20.12;39.99;101051.34;5036660;28;20049;-80
2022/08/20 06:40:05;;;;;;;8.80;5.70;;;;;;;20.14;39.73;101052.22;5036197;28;20053;-80
2022/08/20 06:42:33;;;;;;;13.40;5.40;;;;;;;20.22;39.50;101056.47;5036129;28;20421;-79
2022/08/20 06:45:03;;;;;;;12.80;5.82;;;;;;;20.27;39.77;101036.94;5034735;28;20144;-79
2022/08/20 06:47:32;;;;;;;9.77;5.45;;;;;;;20.43;39.28;101057.88;5035898;28;20460;-79
2022/08/20 06:50:06;;;;;;;9.50;5.10;;;;;;;20.47;39.44;101042.75;5035449;28;20464;-80
2022/08/20 06:52:33;;;;;;;9.60;5.25;;;;;;;20.48;39.21;101019.72;5035520;28;20429;-80
2022/08/20 06:55:19;;;;;;;13.00;5.68;;;;;;;20.61;38.90;101034.56;5035853;28;20054;-79
2022/08/20 06:57:47;;;;;;;12.32;5.80;;;;;;;20.62;38.62;101023.91;5034525;28;20486;-80
2022/08/20 07:00:18;;;;;;;11.63;5.68;;;;;;;20.83;38.71;101045.63;5035601;28;20511;-80
2022/08/20 07:02:46;;;;;;;11.63;5.70;;;;;;;20.96;37.85;101023.22;5034525;28;20049;-81
2022/08/20 07:05:15;;;;;;;9.65;5.75;;;;;;;21.03;38.09;101027.47;5035502;28;20057;-78
2022/08/20 07:07:48;;;;;;;11.82;5.90;;;;;;;21.04;37.77;101039.00;5032624;28;20053;-80
2022/08/20 07:10:17;;;;;;;9.27;5.75;;;;;;;21.00;37.86;101030.22;5033970;28;20050;-78
2022/08/20 07:12:49;;;;;;;11.73;5.67;;;;;;;21.02;37.81;101028.41;5034434;28;20049;-79
2022/08/20 07:15:20;;;;;;;10.10;5.95;;;;;;;21.08;37.49;101024.75;5035031;28;20045;-79
2022/08/20 07:17:53;;;;;;;10.23;5.30;;;;;;;20.99;37.61;101001.03;5034926;28;20057;-79
2022/08/20 07:20:27;;;;;;;10.32;5.72;;;;;;;21.25;37.41;101014.63;5035813;28;20049;-80
2022/08/20 07:22:54;;;;;;;12.63;5.82;;;;;;;21.38;37.10;101031.16;5033662;28;20068;-80
2022/08/20 07:25:22;;;;;;;11.00;5.68;;;;;;;21.43;36.72;101009.81;5034671;28;20421;-80
2022/08/20 07:27:50;;;;;;;9.43;5.35;;;;;;;21.30;36.82;100974.66;5035152;28;20053;-80
2022/08/20 07:33:25;;;;;;;10.10;5.32;;;;;;;22.09;36.04;101002.84;5034964;28;20107;-78
2022/08/20 07:35:55;;;;;;;12.05;5.03;;;;;;;22.37;35.09;101011.03;5034478;28;20114;-80
2022/08/20 07:38:25;;;;;;;10.23;5.15;;;;;;;22.55;34.79;101006.97;5032805;28;20041;-79
2022/08/20 07:40:57;;;;;;;8.75;5.20;;;;;;;22.55;34.94;100996.31;5032401;28;20077;-79
2022/08/20 07:43:28;;;;;;;9.48;5.20;;;;;;;22.67;35.03;100998.66;5032959;28;20072;-80
2022/08/20 07:45:59;;;;;;;8.82;5.70;;;;;;;22.83;34.18;101004.38;5033400;28;20122;-81
2022/08/20 07:48:29;;;;;;;12.95;5.90;;;;;;;22.84;34.26;101011.47;5025063;28;20511;-80
2022/08/20 07:51:02;;;;;;;12.48;6.47;;;;;;;22.92;33.53;101013.03;5034594;28;20071;-79
2022/08/20 07:53:32;;;;;;;11.25;5.82;;;;;;;22.77;33.94;101007.22;5034270;28;20056;-79
2022/08/20 07:56:09;;;;;;;13.65;6.28;;;;;;;22.67;33.99;101008.41;5034132;28;20529;-79
2022/08/20 07:58:41;;;;;;;14.80;6.35;;;;;;;22.38;34.02;100963.97;5030231;28;20045;-82
2022/08/20 08:01:10;;;;;;;13.02;6.25;;;;;;;22.40;34.48;100994.09;5033054;28;20413;-81
2022/08/20 08:03:37;;;;;;;11.02;6.53;;;;;;;22.25;34.27;101017.53;5034521;28;20076;-81
2022/08/20 08:06:17;;;;;;;13.35;6.35;;;;;;;22.12;34.55;101018.75;5034899;28;20053;-80
2022/08/20 08:09:00;;;;;;;13.43;7.00;;;;;;;22.08;34.37;101015.28;5034591;28;20632;-78
2022/08/20 08:11:28;;;;;;;13.77;7.40;;;;;;;22.12;34.38;101021.41;5036222;28;20065;-80
2022/08/20 08:13:58;;;;;;;12.57;7.13;;;;;;;22.00;34.64;100997.78;5034923;28;20080;-80
2022/08/20 08:16:27;;;;;;;14.68;6.97;;;;;;;22.11;34.66;101019.66;5040415;28;20064;-80
2022/08/20 08:18:55;;;;;;;13.20;7.53;;;;;;;22.19;34.81;101032.75;5046188;28;20049;-79
2022/08/20 08:21:24;;;;;;;12.60;7.00;;;;;;;22.17;34.95;101031.94;5041486;28;20049;-80
2022/08/20 08:23:52;;;;;;;12.55;7.82;;;;;;;22.04;35.14;101031.38;5035038;28;20046;-81
2022/08/20 08:26:20;;;;;;;12.68;7.93;;;;;;;22.04;35.14;101042.00;5033929;28;20056;-80
2022/08/20 08:28:47;;;;;;;16.52;8.27;;;;;;;22.00;35.27;101025.25;5032471;28;20065;-81
2022/08/20 08:31:14;;;;;;;16.10;9.23;;;;;;;22.14;34.82;101043.53;5037700;28;20077;-79
2022/08/20 08:33:42;;;;;;;15.50;9.27;;;;;;;21.97;35.01;101048.41;5047364;28;20057;-78
2022/08/20 08:36:14;;;;;;;18.05;9.00;;;;;;;21.85;35.37;101026.53;5044179;28;20049;-80
2022/08/20 08:38:44;;;;;;;14.10;8.68;;;;;;;21.91;35.42;101048.56;5047694;28;20079;-83
2022/08/20 08:41:23;;;;;;;15.43;9.02;;;;;;;21.91;35.70;101046.78;5044481;28;20053;-79
2022/08/20 08:43:53;;;;;;;17.90;9.57;;;;;;;21.89;35.54;101045.94;5049326;28;20053;-80
2022/08/20 08:46:26;;;;;;;15.55;10.18;;;;;;;21.78;35.91;101051.50;5046575;28;20130;-81
2022/08/20 08:48:57;;;;;;;15.90;9.02;;;;;;;21.65;35.79;101042.94;5045093;28;20081;-79
2022/08/20 08:51:34;;;;;;;17.52;9.43;;;;;;;21.35;36.47;101011.75;5040342;28;20042;-79
2022/08/20 08:54:02;;;;;;;17.38;9.27;;;;;;;21.24;36.56;101006.69;5045183;28;20049;-79
2022/08/20 08:56:34;;;;;;;17.98;10.13;;;;;;;21.40;36.62;101061.25;5040673;28;20073;-81
2022/08/20 08:59:06;;;;;;;18.75;10.50;;;;;;;21.35;37.00;101057.78;5032741;28;20452;-78
2022/08/20 09:01:41;;;;;;;18.45;9.73;;;;;;;21.38;37.12;101048.88;5031793;28;20053;-79
2022/08/20 09:04:31;;;;;;;17.73;10.35;;;;;;;21.36;37.13;101056.91;5034077;28;20057;-81
2022/08/20 09:07:01;;;;;;;19.10;10.77;;;;;;;21.36;37.20;101040.06;5033418;28;20063;-81
2022/08/20 09:09:31;;;;;;;21.38;11.10;;;;;;;21.44;37.46;101067.38;5032878;28;20049;-79
2022/08/20 09:12:05;;;;;;;20.48;10.77;;;;;;;21.36;36.98;101058.66;5033481;28;20163;-85
2022/08/20 09:14:33;;;;;;;18.58;11.95;;;;;;;21.28;37.33;101045.56;5030035;28;20049;-80
2022/08/20 09:17:00;;;;;;;18.30;11.02;;;;;;;21.39;37.02;101062.13;5031700;28;20060;-82
2022/08/20 09:19:27;;;;;;;20.35;11.43;;;;;;;21.26;37.41;101063.31;5032416;28;20509;-81
2022/08/20 09:21:54;;;;;;;20.73;11.45;;;;;;;21.26;37.30;101060.66;5031670;28;20501;-80
2022/08/20 09:24:21;;;;;;;17.05;11.77;;;;;;;21.34;36.89;101061.38;5031614;28;20061;-79
2022/08/20 09:26:49;;;;;;;22.63;11.93;;;;;;;21.30;36.71;101062.34;5030899;28;20045;-80
2022/08/20 09:29:16;;;;;;;18.23;11.43;;;;;;;21.27;37.23;101073.03;5038784;28;20049;-79
2022/08/20 09:31:43;;;;;;;16.48;10.57;;;;;;;21.07;36.81;101031.81;5038529;28;20052;-82
2022/08/20 09:34:13;;;;;;;22.38;10.48;;;;;;;21.22;37.26;101045.69;5035444;28;20505;-81
2022/08/20 09:36:40;;;;;;;19.85;10.60;;;;;;;21.13;36.82;101029.97;5030825;28;20053;-82
2022/08/20 09:39:08;;;;;;;19.35;10.73;;;;;;;21.31;37.23;101045.47;5030810;28;20484;-81
2022/08/20 09:41:35;;;;;;;18.17;9.55;;;;;;;21.35;37.10;101049.81;5032714;28;20496;-83
2022/08/20 09:44:03;;;;;;;14.85;9.38;;;;;;;21.29;36.79;101036.66;5032474;28;20057;-83
2022/08/20 09:46:30;;;;;;;18.80;10.20;;;;;;;21.31;37.31;101033.97;5031698;28;20057;-80
2022/08/20 09:48:57;;;;;;;15.70;9.05;;;;;;;21.48;36.85;101038.03;5031720;28;20064;-81
2022/08/20 09:51:24;;;;;;;18.73;9.48;;;;;;;21.42;37.03;101027.56;5031120;28;20071;-80
2022/08/20 09:53:51;;;;;;;19.38;9.38;;;;;;;21.40;37.30;101007.19;5032639;28;20045;-81
2022/08/20 09:56:18;;;;;;;18.88;8.18;;;;;;;21.36;37.39;101016.13;5032647;28;20061;-81
2022/08/20 09:58:52;;;;;;;17.63;8.73;;;;;;;21.30;36.98;101013.66;5031116;28;20057;-81
2022/08/20 10:01:21;;;;;;;17.33;8.63;;;;;;;21.36;37.20;101011.72;5031620;28;20476;-82
2022/08/20 10:03:49;;;;;;;18.87;8.67;;;;;;;21.39;37.17;101021.41;5032228;28;20132;-82
2022/08/20 10:06:18;;;;;;;14.73;8.05;;;;;;;21.28;36.76;101001.25;5030821;28;20133;-82
2022/08/20 10:08:47;;;;;;;13.38;8.13;;;;;;;21.48;36.90;101014.09;5028166;28;20140;-80
2022/08/20 10:11:15;;;;;;;15.30;7.68;;;;;;;21.48;36.73;101030.06;5030091;28;20069;-80
2022/08/20 10:13:44;;;;;;;12.02;7.03;;;;;;;21.41;36.59;101046.16;5031722;28;20054;-80
2022/08/20 10:16:12;;;;;;;14.27;6.60;;;;;;;21.06;36.90;100976.97;5031371;28;20049;-80
2022/08/20 10:18:39;;;;;;;10.25;6.72;;;;;;;21.23;36.98;101015.53;5030876;28;20141;-80
2022/08/20 10:21:11;;;;;;;10.43;6.47;;;;;;;21.31;36.70;101031.31;5031127;28;20148;-78
2022/08/20 10:23:38;;;;;;;10.98;7.05;;;;;;;21.28;36.81;101034.94;5029974;28;20118;-80
2022/08/20 10:26:10;;;;;;;11.77;5.88;;;;;;;21.25;36.81;101024.34;5030076;28;20057;-79
2022/08/20 10:28:38;;;;;;;10.85;5.70;;;;;;;21.13;36.92;101020.19;5026419;28;20111;-81
2022/08/20 10:31:07;;;;;;;10.70;5.43;;;;;;;21.37;36.88;101023.22;5029496;28;20461;-80
2022/08/20 10:33:35;;;;;;;9.00;5.50;;;;;;;21.38;37.06;101023.19;5023749;28;20053;-80
2022/08/20 10:36:20;;;;;;;12.20;5.28;;;;;;;21.35;36.77;101019.72;5030997;28;20072;-84
2022/08/20 10:38:48;;;;;;;10.20;5.50;;;;;;;21.38;36.69;101031.16;5034602;28;20061;-80
2022/08/20 10:41:15;;;;;;;11.60;5.82;;;;;;;21.37;36.92;101031.19;5033549;28;20508;-79
2022/08/20 10:43:42;;;;;;;11.18;5.10;;;;;;;21.32;36.79;101028.66;5031878;28;20454;-81
2022/08/20 10:46:09;;;;;;;10.07;5.50;;;;;;;21.36;37.17;101009.06;5032187;28;20053;-83
2022/08/20 10:48:36;;;;;;;11.85;4.53;;;;;;;21.30;36.99;100977.31;5031019;28;20513;-81
2022/08/20 10:51:04;;;;;;;9.55;5.03;;;;;;;21.52;37.03;100996.31;5031173;28;20464;-80
2022/08/20 10:53:31;;;;;;;14.63;4.57;;;;;;;21.61;36.91;100992.56;5032332;28;20045;-82
2022/08/20 10:55:58;;;;;;;7.40;4.00;;;;;;;21.40;36.68;100962.00;5043478;28;20079;-82
2022/08/20 10:58:30;;;;;;;7.95;3.85;;;;;;;21.74;36.59;101003.75;5044883;28;20057;-82
2022/08/20 11:01:06;;;;;;;10.73;3.92;;;;;;;21.72;36.23;100987.84;5042911;28;20049;-82
2022/08/20 11:03:33;;;;;;;9.75;4.28;;;;;;;21.86;35.74;101004.34;5036871;28;20060;-79
2022/08/20 11:06:02;;;;;;;7.55;4.13;;;;;;;22.04;35.93;101002.09;5035610;28;20070;-80
2022/08/20 11:08:29;;;;;;;10.77;4.65;;;;;;;22.14;35.56;100982.34;5034746;28;20405;-80
2022/08/20 11:11:04;;;;;;;9.80;4.78;;;;;;;22.40;35.22;100992.28;5036478;28;20045;-81
2022/08/20 11:13:35;;;;;;;12.02;4.45;;;;;;;22.23;34.36;100955.50;5037221;28;20065;-81
2022/08/20 11:16:04;;;;;;;7.85;4.32;;;;;;;22.23;34.30;100974.13;5036332;28;20452;-82
2022/08/20 11:18:32;;;;;;;10.45;4.70;;;;;;;22.28;34.14;100976.66;5043816;28;20060;-80
2022/08/20 11:21:00;;;;;;;7.70;4.90;;;;;;;22.36;34.02;100995.09;5047866;28;20075;-81
2022/08/20 11:23:27;;;;;;;9.25;4.63;;;;;;;22.39;34.07;100984.34;5027221;28;20119;-81
2022/08/20 11:25:57;;;;;;;9.48;4.68;;;;;;;22.17;33.80;100973.38;5051230;28;20103;-80
2022/08/20 11:28:24;;;;;;;6.75;4.53;;;;;;;21.92;33.53;100944.78;5037067;28;20428;-81
2022/08/20 11:30:59;;;;;;;9.20;4.75;;;;;;;21.99;33.86;100964.13;5037580;28;20115;-83
2022/08/20 11:33:27;;;;;;;11.60;4.70;;;;;;;22.09;33.81;100979.81;5039543;28;20053;-81
2022/08/20 11:35:54;;;;;;;9.82;4.28;;;;;;;21.81;33.49;100929.13;5038855;28;20359;-79
2022/08/20 11:38:21;;;;;;;11.85;4.60;;;;;;;22.08;34.04;100977.16;5037981;28;20505;-81
2022/08/20 11:40:48;;;;;;;8.68;3.70;;;;;;;21.89;33.84;100942.19;5034331;28;20064;-81
2022/08/20 11:43:15;;;;;;;8.05;3.75;;;;;;;22.03;33.64;100971.13;5033871;28;20053;-80
2022/08/20 11:45:50;;;;;;;8.60;3.38;;;;;;;22.00;33.70;100974.69;5033088;28;20087;-78